createdAt,value
2023-05-01T00:02:23.962Z,99.90
2023-05-01T00:04:50.709Z,99.90
2023-05-01T00:07:17.542Z,99.90
2023-05-01T00:09:44.238Z,99.90
2023-05-01T00:12:11.794Z,99.90
2023-05-01T00:14:38.554Z,99.90
2023-05-01T00:17:06.123Z,99.90
2023-05-01T00:19:32.834Z,99.90
2023-05-01T00:21:59.547Z,99.90
2023-05-01T00:24:26.356Z,99.90
2023-05-01T00:26:53.158Z,99.90
2023-05-01T00:29:19.898Z,99.90
2023-05-01T00:31:47.778Z,99.90
2023-05-01T00:34:14.601Z,99.90
2023-05-01T00:36:41.614Z,99.90
2023-05-01T00:39:08.510Z,99.90
2023-05-01T00:41:35.723Z,99.90
2023-05-01T00:44:02.692Z,99.90
2023-05-01T00:46:32.325Z,99.90
2023-05-01T00:48:59.549Z,99.90
2023-05-01T00:51:29.116Z,99.90
2023-05-01T00:53:57.108Z,99.90
2023-05-01T00:56:25.800Z,99.90
2023-05-01T00:58:54.399Z,99.90
2023-05-01T01:01:21.638Z,99.90
2023-05-01T01:03:48.763Z,99.90
2023-05-01T01:06:31.455Z,99.90
2023-05-01T01:09:08.129Z,99.90
2023-05-01T01:11:46.621Z,99.90
2023-05-01T01:14:21.213Z,99.90
2023-05-01T01:16:59.310Z,99.90
2023-05-01T01:19:36.114Z,99.90
2023-05-01T01:22:10.634Z,99.90
2023-05-01T01:24:40.089Z,99.90
2023-05-01T01:27:45.978Z,99.90
2023-05-01T01:30:25.139Z,99.90
2023-05-01T01:33:29.715Z,99.90
2023-05-01T01:35:58.232Z,99.90
2023-05-01T01:38:39.693Z,99.90
2023-05-01T01:41:12.007Z,99.90
2023-05-01T01:43:43.552Z,99.90
2023-05-01T01:46:11.704Z,99.90
2023-05-01T01:48:46.308Z,99.90
2023-05-01T01:51:17.787Z,99.90
2023-05-01T01:53:48.605Z,99.90
2023-05-01T01:56:17.571Z,99.90
2023-05-01T01:58:47.100Z,99.90
2023-05-01T02:01:15.798Z,99.90
2023-05-01T02:03:45.892Z,99.90
2023-05-01T02:06:15.801Z,99.90
2023-05-01T02:08:44.013Z,99.90
2023-05-01T02:11:14.575Z,99.90
2023-05-01T02:13:43.189Z,99.90
2023-05-01T02:16:10.958Z,99.90
2023-05-01T02:18:39.457Z,99.90
2023-05-01T02:21:06.943Z,99.90
2023-05-01T02:23:36.376Z,99.90
2023-05-01T02:26:04.325Z,99.90
2023-05-01T02:28:32.131Z,99.90
2023-05-01T02:30:59.099Z,99.90
2023-05-01T02:33:25.999Z,99.90
2023-05-01T02:35:52.643Z,99.90
2023-05-01T02:38:19.422Z,99.90
2023-05-01T02:40:51.878Z,99.90
2023-05-01T02:43:21.187Z,99.90
2023-05-01T02:45:49.383Z,99.90
2023-05-01T02:48:20.736Z,99.90
2023-05-01T02:50:48.675Z,99.90
2023-05-01T02:53:16.390Z,99.90
2023-05-01T02:55:43.574Z,99.90
2023-05-01T02:58:21.287Z,99.90
2023-05-01T03:00:51.410Z,99.90
2023-05-01T03:03:18.294Z,99.90
2023-05-01T03:05:45.013Z,99.90
2023-05-01T03:08:12.767Z,99.90
2023-05-01T03:10:43.648Z,99.90
2023-05-01T03:13:11.509Z,99.90
2023-05-01T03:15:39.050Z,99.90
2023-05-01T03:18:06.526Z,99.90
2023-05-01T03:20:34.067Z,99.90
2023-05-01T03:23:01.119Z,99.90
2023-05-01T03:25:27.798Z,99.90
2023-05-01T03:27:55.271Z,99.90
2023-05-01T03:30:22.421Z,99.90
2023-05-01T03:32:49.188Z,99.90
2023-05-01T03:35:16.191Z,99.90
2023-05-01T03:37:43.951Z,99.90
2023-05-01T03:40:12.491Z,99.90
2023-05-01T03:42:41.808Z,99.90
2023-05-01T03:45:09.342Z,99.90
2023-05-01T03:47:36.049Z,99.90
2023-05-01T03:50:04.771Z,99.90
2023-05-01T03:52:31.463Z,99.90
2023-05-01T03:54:58.130Z,99.90
2023-05-01T03:57:24.882Z,99.90
2023-05-01T03:59:51.627Z,99.90
2023-05-01T04:02:18.596Z,99.90
2023-05-01T04:04:45.547Z,99.90
2023-05-01T04:07:13.419Z,99.90
2023-05-01T04:09:40.266Z,99.90
2023-05-01T04:12:07.024Z,99.90
2023-05-01T04:14:33.775Z,99.90
2023-05-01T04:17:00.641Z,99.90
2023-05-01T04:19:28.391Z,99.90
2023-05-01T04:21:55.252Z,99.90
2023-05-01T04:24:21.984Z,99.90
2023-05-01T04:26:48.852Z,99.90
2023-05-01T04:29:16.928Z,99.90
2023-05-01T04:31:44.139Z,99.90
2023-05-01T04:34:12.225Z,99.90
2023-05-01T04:36:38.896Z,99.90
2023-05-01T04:39:05.622Z,99.90
2023-05-01T04:41:32.332Z,99.90
2023-05-01T04:43:59.204Z,99.90
2023-05-01T04:46:26.078Z,99.90
2023-05-01T04:48:54.157Z,99.90
2023-05-01T04:51:21.329Z,99.90
2023-05-01T04:53:48.328Z,99.90
2023-05-01T04:56:15.040Z,99.90
2023-05-01T04:58:42.230Z,99.90
2023-05-01T05:01:09.153Z,99.90
2023-05-01T05:03:36.073Z,99.90
2023-05-01T05:06:03.603Z,99.90
2023-05-01T05:08:31.425Z,99.90
2023-05-01T05:11:02.201Z,99.90
2023-05-01T05:13:29.038Z,99.90
2023-05-01T05:15:55.866Z,99.90
2023-05-01T05:18:22.849Z,99.90
2023-05-01T05:20:49.843Z,99.90
2023-05-01T05:23:16.579Z,99.90
2023-05-01T05:25:43.304Z,99.90
2023-05-01T05:28:10.097Z,99.90
2023-05-01T05:30:37.277Z,99.90
2023-05-01T05:33:05.265Z,99.90
2023-05-01T05:35:32.137Z,99.90
2023-05-01T05:37:59.318Z,99.90
2023-05-01T05:40:25.991Z,99.90
2023-05-01T05:42:53.494Z,99.90
2023-05-01T05:45:20.467Z,99.90
2023-05-01T05:47:47.171Z,99.90
2023-05-01T05:50:13.885Z,99.90
2023-05-01T05:52:40.591Z,99.90
2023-05-01T05:55:07.735Z,99.90
2023-05-01T05:57:37.281Z,99.90
2023-05-01T06:00:05.603Z,99.90
2023-05-01T06:02:33.729Z,99.90
2023-05-01T06:05:00.478Z,99.90
2023-05-01T06:07:28.773Z,99.90
2023-05-01T06:09:55.894Z,99.90
2023-05-01T06:12:23.125Z,99.90
2023-05-01T06:14:50.585Z,99.90
2023-05-01T06:17:17.299Z,99.90
2023-05-01T06:19:44.014Z,99.90
2023-05-01T06:22:11.272Z,99.90
2023-05-01T06:24:39.687Z,99.90
2023-05-01T06:27:06.478Z,99.90
2023-05-01T06:29:33.451Z,99.90
2023-05-01T06:32:00.521Z,99.90
2023-05-01T06:34:27.238Z,99.90
2023-05-01T06:36:53.980Z,99.90
2023-05-01T06:39:20.699Z,99.90
2023-05-01T06:41:47.653Z,99.90
2023-05-01T06:44:14.491Z,99.90
2023-05-01T06:46:41.351Z,99.90
2023-05-01T06:49:08.463Z,99.90
2023-05-01T06:51:35.257Z,99.90
2023-05-01T06:54:02.232Z,99.90
2023-05-01T06:56:29.020Z,99.90
2023-05-01T06:58:55.883Z,99.90
2023-05-01T07:01:22.722Z,99.90
2023-05-01T07:03:49.524Z,99.90
2023-05-01T07:06:16.220Z,99.90
2023-05-01T07:08:43.032Z,99.90
2023-05-01T07:11:09.781Z,99.90
2023-05-01T07:13:36.527Z,99.90
2023-05-01T07:16:03.268Z,99.90
2023-05-01T07:18:30.147Z,99.90
2023-05-01T07:20:56.923Z,99.90
2023-05-01T07:23:25.413Z,99.90
2023-05-01T07:25:53.070Z,99.90
2023-05-01T07:28:20.498Z,99.90
2023-05-01T07:30:47.722Z,99.90
2023-05-01T07:33:14.611Z,99.90
2023-05-01T07:35:41.389Z,99.90
2023-05-01T07:38:08.767Z,99.90
2023-05-01T07:40:36.590Z,99.90
2023-05-01T07:43:04.277Z,99.90
2023-05-01T07:45:30.988Z,99.90
2023-05-01T07:47:57.781Z,99.90
2023-05-01T07:50:25.816Z,99.90
2023-05-01T07:52:52.797Z,99.90
2023-05-01T07:55:21.105Z,99.90
2023-05-01T07:57:47.858Z,99.90
2023-05-01T08:00:15.072Z,99.90
2023-05-01T08:02:42.199Z,99.90
2023-05-01T08:05:09.579Z,99.90
2023-05-01T08:07:36.337Z,99.90
2023-05-01T08:10:03.430Z,99.90
2023-05-01T08:12:31.305Z,99.90
2023-05-01T08:14:58.034Z,99.90
2023-05-01T08:17:24.756Z,99.90
2023-05-01T08:19:53.802Z,99.90
2023-05-01T08:22:20.746Z,99.90
2023-05-01T08:24:47.631Z,99.90
2023-05-01T08:27:14.433Z,99.90
2023-05-01T08:29:41.202Z,99.90
2023-05-01T08:32:07.877Z,99.90
2023-05-01T08:34:34.738Z,99.90
2023-05-01T08:37:01.508Z,99.90
2023-05-01T08:39:28.211Z,99.90
2023-05-01T08:41:55.863Z,99.90
2023-05-01T08:44:25.386Z,99.90
2023-05-01T08:47:10.301Z,99.90
2023-05-01T08:49:39.019Z,99.90
2023-05-01T08:52:06.984Z,99.90
2023-05-01T08:54:36.538Z,99.90
2023-05-01T08:57:04.590Z,99.90
2023-05-01T08:59:37.094Z,99.90
2023-05-01T09:02:06.097Z,99.90
2023-05-01T09:04:35.893Z,99.90
2023-05-01T09:07:02.998Z,99.90
2023-05-01T09:09:30.562Z,99.90
2023-05-01T09:12:01.317Z,99.90
2023-05-01T09:14:29.320Z,99.90
2023-05-01T09:16:56.837Z,99.90
2023-05-01T09:19:26.307Z,99.90
2023-05-01T09:21:54.739Z,99.90
2023-05-01T09:24:24.376Z,99.90
2023-05-01T09:26:52.133Z,99.90
2023-05-01T09:29:42.181Z,99.90
2023-05-01T09:32:28.445Z,99.90
2023-05-01T09:35:12.716Z,99.90
2023-05-01T09:37:39.634Z,99.90
2023-05-01T09:40:13.270Z,99.90
2023-05-01T09:42:53.056Z,99.90
2023-05-01T09:45:19.907Z,99.90
2023-05-01T09:47:47.370Z,99.90
2023-05-01T09:50:35.093Z,99.90
2023-05-01T09:53:04.601Z,99.90
2023-05-01T09:55:31.596Z,99.90
2023-05-01T09:58:01.502Z,99.90
2023-05-01T10:00:28.385Z,99.90
2023-05-01T10:02:55.328Z,98.10
2023-05-01T10:05:23.134Z,94.30
2023-05-01T10:07:59.824Z,91.00
2023-05-01T10:10:27.376Z,86.70
2023-05-01T10:12:54.867Z,90.10
2023-05-01T10:15:26.235Z,91.80
2023-05-01T10:17:54.579Z,91.50
2023-05-01T10:20:21.661Z,91.80
2023-05-01T10:22:49.049Z,94.50
2023-05-01T10:25:17.650Z,92.40
2023-05-01T10:27:44.822Z,93.30
2023-05-01T10:30:12.430Z,91.90
2023-05-01T10:32:41.897Z,93.50
2023-05-01T10:35:21.680Z,91.90
2023-05-01T10:38:25.117Z,93.90
2023-05-01T10:40:52.113Z,92.30
2023-05-01T10:43:30.541Z,91.60
2023-05-01T10:46:19.360Z,90.40
2023-05-01T10:48:46.930Z,89.50
2023-05-01T10:51:22.771Z,90.30
2023-05-01T10:54:13.797Z,91.60
2023-05-01T10:56:44.116Z,90.80
2023-05-01T10:59:11.882Z,91.70
2023-05-01T11:01:45.704Z,93.90
2023-05-01T11:04:27.534Z,91.80
2023-05-01T11:07:07.769Z,92.10
2023-05-01T11:09:38.957Z,93.00
2023-05-01T11:12:06.997Z,94.20
2023-05-01T11:14:57.456Z,94.80
2023-05-01T11:17:42.959Z,96.50
2023-05-01T11:20:36.450Z,98.50
2023-05-01T11:23:03.299Z,97.40
2023-05-01T11:25:31.424Z,98.60
2023-05-01T11:27:59.732Z,99.10
2023-05-01T11:30:26.747Z,99.40
2023-05-01T11:32:53.455Z,98.70
2023-05-01T11:35:23.925Z,99.50
2023-05-01T11:37:55.930Z,99.90
2023-05-01T11:40:30.361Z,99.90
2023-05-01T11:43:05.167Z,99.90
2023-05-01T11:45:34.541Z,99.90
2023-05-01T11:48:04.424Z,99.90
2023-05-01T11:50:32.690Z,99.90
2023-05-01T11:52:59.474Z,99.90
2023-05-01T11:55:34.540Z,99.90
2023-05-01T11:58:02.014Z,99.90
2023-05-01T12:00:29.873Z,99.20
2023-05-01T12:03:06.449Z,98.30
2023-05-01T12:05:39.129Z,99.90
2023-05-01T12:08:20.545Z,99.90
2023-05-01T12:10:57.055Z,99.90
2023-05-01T12:13:24.760Z,99.90
2023-05-01T12:15:53.299Z,99.90
2023-05-01T12:18:23.370Z,99.90
2023-05-01T12:20:52.167Z,99.90
2023-05-01T12:23:29.606Z,99.90
2023-05-01T12:25:56.814Z,99.90
2023-05-01T12:28:23.850Z,99.90
2023-05-01T12:30:50.546Z,99.90
2023-05-01T12:33:19.241Z,99.90
2023-05-01T12:35:50.817Z,99.90
2023-05-01T12:38:19.195Z,99.90
2023-05-01T12:40:56.920Z,99.90
2023-05-01T12:43:37.993Z,99.90
2023-05-01T12:46:06.114Z,99.90
2023-05-01T12:48:35.749Z,99.90
2023-05-01T12:51:02.486Z,99.90
2023-05-01T12:53:30.143Z,99.90
2023-05-01T12:55:58.746Z,99.90
2023-05-01T12:58:38.286Z,99.90
2023-05-01T13:01:06.360Z,99.90
2023-05-01T13:03:36.971Z,99.90
2023-05-01T13:06:06.138Z,99.90
2023-05-01T13:08:38.412Z,99.90
2023-05-01T13:11:13.407Z,99.90
2023-05-01T13:13:40.865Z,99.90
2023-05-01T13:16:16.157Z,99.90
2023-05-01T13:18:48.489Z,99.90
2023-05-01T13:21:22.016Z,99.90
2023-05-01T13:23:59.221Z,99.90
2023-05-01T13:26:28.841Z,99.90
2023-05-01T13:28:57.309Z,99.90
2023-05-01T13:31:24.373Z,99.90
2023-05-01T13:33:53.648Z,99.90
2023-05-01T13:36:25.988Z,99.90
2023-05-01T13:38:56.227Z,99.90
2023-05-01T13:41:25.625Z,99.90
2023-05-01T13:43:54.075Z,99.90
2023-05-01T13:46:22.683Z,99.90
2023-05-01T13:48:50.048Z,99.90
2023-05-01T13:51:22.506Z,99.90
2023-05-01T13:53:53.468Z,99.90
2023-05-01T13:56:21.568Z,99.90
2023-05-01T13:58:48.661Z,99.90
2023-05-01T14:01:18.515Z,99.90
2023-05-01T14:03:45.934Z,99.90
2023-05-01T14:06:15.156Z,99.90
2023-05-01T14:08:43.197Z,99.90
2023-05-01T14:11:11.611Z,99.90
2023-05-01T14:13:43.081Z,99.90
2023-05-01T14:16:22.032Z,99.90
2023-05-01T14:18:48.838Z,99.90
2023-05-01T14:21:17.215Z,98.70
2023-05-01T14:23:44.257Z,98.20
2023-05-01T14:26:16.926Z,98.80
2023-05-01T14:28:44.780Z,98.20
2023-05-01T14:31:17.488Z,96.60
2023-05-01T14:33:44.515Z,99.90
2023-05-01T14:36:12.482Z,99.90
2023-05-01T14:38:40.631Z,99.90
2023-05-01T14:41:11.713Z,99.80
2023-05-01T14:43:41.592Z,99.90
2023-05-01T14:46:08.370Z,94.50
2023-05-01T14:48:37.049Z,95.70
2023-05-01T14:51:10.846Z,93.10
2023-05-01T14:53:44.371Z,94.70
2023-05-01T14:56:11.994Z,91.60
2023-05-01T14:58:38.842Z,93.00
2023-05-01T15:01:06.087Z,92.70
2023-05-01T15:03:40.844Z,93.30
2023-05-01T15:06:08.981Z,92.80
2023-05-01T15:08:36.725Z,99.50
2023-05-01T15:11:03.666Z,97.80
2023-05-01T15:13:31.802Z,92.60
2023-05-01T15:15:59.017Z,94.10
2023-05-01T15:18:26.417Z,96.30
2023-05-01T15:20:53.420Z,94.70
2023-05-01T15:23:20.639Z,94.90
2023-05-01T15:25:48.069Z,96.10
2023-05-01T15:28:14.962Z,96.00
2023-05-01T15:30:46.646Z,94.80
2023-05-01T15:33:16.875Z,95.20
2023-05-01T15:35:46.218Z,95.10
2023-05-01T15:38:14.245Z,97.60
2023-05-01T15:40:43.581Z,96.30
2023-05-01T15:43:10.380Z,96.40
2023-05-01T15:45:43.003Z,96.90
2023-05-01T15:48:11.322Z,98.80
2023-05-01T15:50:38.187Z,97.60
2023-05-01T15:53:04.954Z,97.70
2023-05-01T15:55:31.672Z,97.60
2023-05-01T15:57:58.555Z,99.90
2023-05-01T16:00:25.813Z,98.10
2023-05-01T16:02:52.836Z,97.80
2023-05-01T16:05:24.623Z,98.20
2023-05-01T16:07:55.254Z,97.40
2023-05-01T16:10:22.832Z,97.80
2023-05-01T16:12:52.399Z,97.90
2023-05-01T16:15:19.185Z,97.80
2023-05-01T16:17:46.669Z,97.40
2023-05-01T16:20:14.352Z,97.60
2023-05-01T16:22:42.929Z,96.90
2023-05-01T16:25:10.618Z,97.80
2023-05-01T16:27:45.834Z,97.30
2023-05-01T16:30:16.628Z,99.10
2023-05-01T16:32:44.932Z,99.90
2023-05-01T16:35:21.111Z,99.90
2023-05-01T16:37:47.789Z,99.90
2023-05-01T16:40:18.298Z,99.90
2023-05-01T16:42:54.910Z,99.90
2023-05-01T16:45:22.055Z,99.90
2023-05-01T16:47:49.063Z,99.90
2023-05-01T16:50:17.085Z,99.90
2023-05-01T16:52:44.019Z,99.90
2023-05-01T16:55:10.893Z,99.90
2023-05-01T16:57:37.654Z,99.90
2023-05-01T17:00:05.534Z,99.90
2023-05-01T17:02:33.759Z,99.90
2023-05-01T17:05:01.452Z,99.90
2023-05-01T17:07:28.409Z,99.90
2023-05-01T17:09:55.084Z,99.90
2023-05-01T17:12:21.878Z,99.90
2023-05-01T17:14:49.372Z,99.90
2023-05-01T17:17:17.886Z,99.90
2023-05-01T17:19:44.776Z,99.90
2023-05-01T17:22:11.484Z,99.90
2023-05-01T17:24:38.297Z,99.90
2023-05-01T17:27:05.058Z,99.90
2023-05-01T17:29:32.111Z,99.90
2023-05-01T17:31:58.789Z,99.90
2023-05-01T17:34:25.598Z,99.90
2023-05-01T17:36:52.574Z,99.90
2023-05-01T17:39:21.628Z,99.90
2023-05-01T17:41:51.350Z,99.90
2023-05-01T17:44:18.100Z,99.90
2023-05-01T17:46:44.850Z,99.90
2023-05-01T17:49:11.525Z,99.90
2023-05-01T17:51:38.513Z,99.90
2023-05-01T17:54:05.788Z,99.90
2023-05-01T17:56:32.518Z,99.90
2023-05-01T17:58:59.571Z,99.90
2023-05-01T18:01:26.334Z,99.90
2023-05-01T18:03:54.118Z,99.90
2023-05-01T18:06:21.141Z,99.90
2023-05-01T18:08:49.975Z,99.90
2023-05-01T18:11:16.968Z,99.90
2023-05-01T18:13:47.285Z,99.90
2023-05-01T18:16:15.278Z,99.90
2023-05-01T18:18:42.137Z,99.90
2023-05-01T18:21:09.088Z,99.90
2023-05-01T18:23:36.551Z,99.90
2023-05-01T18:26:03.742Z,99.90
2023-05-01T18:28:30.735Z,99.90
2023-05-01T18:30:59.019Z,99.90
2023-05-01T18:33:25.942Z,99.90
2023-05-01T18:35:53.113Z,99.90
2023-05-01T18:38:19.764Z,99.90
2023-05-01T18:40:47.686Z,99.90
2023-05-01T18:43:14.481Z,99.90
2023-05-01T18:45:41.358Z,99.90
2023-05-01T18:48:08.554Z,99.90
2023-05-01T18:50:37.408Z,99.90
2023-05-01T18:53:05.092Z,99.90
2023-05-01T18:55:33.093Z,99.90
2023-05-01T18:58:01.531Z,99.90
2023-05-01T19:00:29.144Z,99.90
2023-05-01T19:02:56.059Z,99.90
2023-05-01T19:05:24.758Z,99.90
2023-05-01T19:07:51.830Z,99.90
2023-05-01T19:10:18.645Z,99.90
2023-05-01T19:12:45.702Z,99.90
2023-05-01T19:15:13.571Z,99.90
2023-05-01T19:17:40.260Z,99.90
2023-05-01T19:20:07.760Z,99.90
2023-05-01T19:22:34.459Z,99.90
2023-05-01T19:25:01.763Z,99.90
2023-05-01T19:27:28.534Z,99.90
2023-05-01T19:29:59.216Z,99.90
2023-05-01T19:32:28.332Z,99.90
2023-05-01T19:34:56.013Z,99.90
2023-05-01T19:37:22.775Z,99.90
2023-05-01T19:39:51.018Z,99.90
2023-05-01T19:42:18.863Z,99.90
2023-05-01T19:44:46.081Z,99.90
2023-05-01T19:47:12.832Z,99.90
2023-05-01T19:49:39.614Z,99.90
2023-05-01T19:52:06.478Z,99.90
2023-05-01T19:54:33.126Z,99.90
2023-05-01T19:56:59.830Z,99.90
2023-05-01T19:59:26.851Z,99.90
2023-05-01T20:01:53.859Z,99.90
2023-05-01T20:04:22.947Z,99.90
2023-05-01T20:06:50.258Z,99.90
2023-05-01T20:09:17.541Z,99.90
2023-05-01T20:11:44.363Z,99.90
2023-05-01T20:14:11.218Z,99.90
2023-05-01T20:16:38.011Z,99.90
2023-05-01T20:19:04.822Z,99.90
2023-05-01T20:21:32.615Z,99.90
2023-05-01T20:23:59.417Z,99.90
2023-05-01T20:26:26.587Z,99.90
2023-05-01T20:28:53.630Z,99.90
2023-05-01T20:31:21.298Z,99.90
2023-05-01T20:33:48.124Z,99.90
2023-05-01T20:36:15.369Z,99.90
2023-05-01T20:38:44.120Z,99.90
2023-05-01T20:41:11.149Z,99.90
2023-05-01T20:43:38.699Z,99.90
2023-05-01T20:46:05.756Z,99.90
2023-05-01T20:48:32.812Z,99.90
2023-05-01T20:50:59.477Z,99.90
2023-05-01T20:53:26.189Z,99.90
2023-05-01T20:55:52.849Z,99.90
2023-05-01T20:58:19.585Z,99.90
2023-05-01T21:00:46.341Z,99.90
2023-05-01T21:03:15.203Z,99.90
2023-05-01T21:05:42.084Z,99.90
2023-05-01T21:08:08.865Z,99.90
2023-05-01T21:10:36.594Z,99.90
2023-05-01T21:13:03.748Z,99.90
2023-05-01T21:15:31.892Z,99.90
2023-05-01T21:17:58.708Z,99.90
2023-05-01T21:20:33.942Z,99.90
2023-05-01T21:23:01.423Z,99.90
2023-05-01T21:25:29.944Z,99.90
2023-05-01T21:27:56.778Z,99.90
2023-05-01T21:30:34.337Z,99.90
2023-05-01T21:33:21.474Z,99.90
2023-05-01T21:35:48.379Z,99.90
2023-05-01T21:38:15.975Z,99.90
2023-05-01T21:40:43.640Z,99.90
2023-05-01T21:43:10.766Z,99.90
2023-05-01T21:45:43.138Z,99.90
2023-05-01T21:48:13.692Z,99.90
2023-05-01T21:50:40.556Z,99.90
2023-05-01T21:53:07.336Z,99.90
2023-05-01T21:55:34.077Z,99.90
2023-05-01T21:58:01.942Z,99.90
2023-05-01T22:00:29.964Z,99.90
2023-05-01T22:02:56.891Z,99.90
2023-05-01T22:05:23.858Z,99.90
2023-05-01T22:07:54.908Z,99.90
2023-05-01T22:10:21.735Z,99.90
2023-05-01T22:12:51.965Z,99.90
2023-05-01T22:15:18.948Z,99.90
2023-05-01T22:17:45.854Z,99.90
2023-05-01T22:20:12.751Z,99.90
2023-05-01T22:22:40.996Z,99.90
2023-05-01T22:25:09.250Z,99.90
2023-05-01T22:27:36.910Z,99.90
2023-05-01T22:30:04.860Z,99.90
2023-05-01T22:32:31.675Z,99.90
2023-05-01T22:34:58.471Z,99.90
2023-05-01T22:37:27.965Z,99.90
2023-05-01T22:39:54.723Z,99.90
2023-05-01T22:42:23.268Z,99.90
2023-05-01T22:44:49.932Z,99.90
2023-05-01T22:47:17.910Z,99.90
2023-05-01T22:49:44.904Z,99.90
2023-05-01T22:52:11.653Z,99.90
2023-05-01T22:54:38.333Z,99.90
2023-05-01T22:57:05.017Z,99.90
2023-05-01T22:59:32.971Z,99.90
2023-05-01T23:02:03.249Z,99.90
2023-05-01T23:04:30.757Z,99.90
2023-05-01T23:06:58.444Z,99.90
2023-05-01T23:09:25.436Z,99.90
2023-05-01T23:11:52.389Z,99.90
2023-05-01T23:14:19.324Z,99.90
2023-05-01T23:16:45.998Z,99.90
2023-05-01T23:19:24.059Z,99.90
2023-05-01T23:22:02.516Z,99.90
2023-05-01T23:24:40.617Z,99.90
2023-05-01T23:27:08.307Z,99.90
2023-05-01T23:29:35.673Z,99.90
2023-05-01T23:32:02.564Z,99.90
2023-05-01T23:34:29.324Z,99.90
2023-05-01T23:36:56.064Z,99.90
2023-05-01T23:39:22.776Z,99.90
2023-05-01T23:41:50.517Z,99.90
2023-05-01T23:44:17.192Z,99.90
2023-05-01T23:46:44.188Z,99.90
2023-05-01T23:49:11.421Z,99.90
2023-05-01T23:51:38.240Z,99.90
2023-05-01T23:54:05.040Z,99.90
2023-05-01T23:56:32.874Z,99.90
2023-05-01T23:58:59.544Z,99.90
